sensor_id;sensor_type;location;lat;lon;timestamp;P1;durP1;ratioP1;P2;durP2;ratioP2
1376;SDS011;682;52.502;13.488;2022-08-19T00:01:20;16.13;;;14.83;;
1376;SDS011;682;52.502;13.488;2022-08-19T00:03:47;15.90;;;14.60;;
1376;SDS011;682;52.502;13.488;2022-08-19T00:06:14;15.17;;;13.83;;
1376;SDS011;682;52.502;13.488;2022-08-19T00:08:41;16.60;;;15.20;;
1376;SDS011;682;52.502;13.488;2022-08-19T00:11:10;16.83;;;15.33;;
1376;SDS011;682;52.502;13.488;2022-08-19T00:13:37;16.63;;;15.20;;
1376;SDS011;682;52.502;13.488;2022-08-19T00:16:04;16.17;;;14.77;;
1376;SDS011;682;52.502;13.488;2022-08-19T00:18:32;18.63;;;17.03;;
1376;SDS011;682;52.502;13.488;2022-08-19T00:20:59;16.43;;;15.13;;
1376;SDS011;682;52.502;13.488;2022-08-19T00:23:26;17.63;;;16.07;;
1376;SDS011;682;52.502;13.488;2022-08-19T00:25:54;17.53;;;16.00;;
1376;SDS011;682;52.502;13.488;2022-08-19T00:28:22;17.73;;;16.23;;
1376;SDS011;682;52.502;13.488;2022-08-19T00:30:49;19.40;;;17.90;;
1376;SDS011;682;52.502;13.488;2022-08-19T00:33:18;18.20;;;16.53;;
1376;SDS011;682;52.502;13.488;2022-08-19T00:35:45;16.93;;;15.53;;
1376;SDS011;682;52.502;13.488;2022-08-19T00:38:12;18.03;;;16.43;;
1376;SDS011;682;52.502;13.488;2022-08-19T00:40:39;18.60;;;17.00;;
1376;SDS011;682;52.502;13.488;2022-08-19T00:43:09;20.03;;;18.03;;
1376;SDS011;682;52.502;13.488;2022-08-19T00:45:40;19.70;;;17.77;;
1376;SDS011;682;52.502;13.488;2022-08-19T00:48:08;20.47;;;18.20;;
1376;SDS011;682;52.502;13.488;2022-08-19T00:50:36;20.30;;;18.60;;
1376;SDS011;682;52.502;13.488;2022-08-19T00:53:05;22.17;;;19.97;;
1376;SDS011;682;52.502;13.488;2022-08-19T00:55:35;20.37;;;18.47;;
1376;SDS011;682;52.502;13.488;2022-08-19T00:58:04;20.90;;;19.13;;
1376;SDS011;682;52.502;13.488;2022-08-19T01:00:35;21.87;;;19.97;;
1376;SDS011;682;52.502;13.488;2022-08-19T01:03:04;21.80;;;19.80;;
1376;SDS011;682;52.502;13.488;2022-08-19T01:05:33;19.90;;;18.20;;
1376;SDS011;682;52.502;13.488;2022-08-19T01:08:03;20.30;;;18.37;;
1376;SDS011;682;52.502;13.488;2022-08-19T01:10:33;20.93;;;19.03;;
1376;SDS011;682;52.502;13.488;2022-08-19T01:13:03;20.70;;;19.00;;
1376;SDS011;682;52.502;13.488;2022-08-19T01:15:32;20.73;;;18.93;;
1376;SDS011;682;52.502;13.488;2022-08-19T01:18:01;20.93;;;19.13;;
1376;SDS011;682;52.502;13.488;2022-08-19T01:20:33;21.20;;;19.07;;
1376;SDS011;682;52.502;13.488;2022-08-19T01:23:01;20.60;;;18.80;;
1376;SDS011;682;52.502;13.488;2022-08-19T01:25:29;21.80;;;19.70;;
1376;SDS011;682;52.502;13.488;2022-08-19T01:28:00;22.70;;;20.80;;
1376;SDS011;682;52.502;13.488;2022-08-19T01:30:28;22.60;;;20.50;;
1376;SDS011;682;52.502;13.488;2022-08-19T01:32:58;22.83;;;20.60;;
1376;SDS011;682;52.502;13.488;2022-08-19T01:35:27;23.93;;;21.23;;
1376;SDS011;682;52.502;13.488;2022-08-19T01:37:57;23.57;;;21.57;;
1376;SDS011;682;52.502;13.488;2022-08-19T01:40:28;23.63;;;21.23;;
1376;SDS011;682;52.502;13.488;2022-08-19T01:42:57;21.47;;;19.67;;
1376;SDS011;682;52.502;13.488;2022-08-19T01:45:25;23.47;;;21.40;;
1376;SDS011;682;52.502;13.488;2022-08-19T01:47:54;22.97;;;21.07;;
1376;SDS011;682;52.502;13.488;2022-08-19T01:50:22;21.93;;;20.00;;
1376;SDS011;682;52.502;13.488;2022-08-19T01:52:49;21.57;;;19.73;;
1376;SDS011;682;52.502;13.488;2022-08-19T01:55:19;23.20;;;21.20;;
1376;SDS011;682;52.502;13.488;2022-08-19T01:57:52;23.13;;;21.10;;
1376;SDS011;682;52.502;13.488;2022-08-19T02:00:22;23.30;;;21.17;;
1376;SDS011;682;52.502;13.488;2022-08-19T02:02:52;22.30;;;20.37;;
1376;SDS011;682;52.502;13.488;2022-08-19T02:05:20;20.57;;;18.57;;
1376;SDS011;682;52.502;13.488;2022-08-19T02:07:48;21.30;;;19.30;;
1376;SDS011;682;52.502;13.488;2022-08-19T02:10:16;19.73;;;17.80;;
1376;SDS011;682;52.502;13.488;2022-08-19T02:12:46;17.67;;;16.17;;
1376;SDS011;682;52.502;13.488;2022-08-19T02:15:15;19.77;;;18.07;;
1376;SDS011;682;52.502;13.488;2022-08-19T02:17:43;19.80;;;17.90;;
1376;SDS011;682;52.502;13.488;2022-08-19T02:20:11;20.93;;;19.23;;
1376;SDS011;682;52.502;13.488;2022-08-19T02:22:39;20.37;;;18.47;;
1376;SDS011;682;52.502;13.488;2022-08-19T02:25:07;20.63;;;18.73;;
1376;SDS011;682;52.502;13.488;2022-08-19T02:27:35;21.60;;;19.60;;
1376;SDS011;682;52.502;13.488;2022-08-19T02:30:03;21.57;;;19.67;;
1376;SDS011;682;52.502;13.488;2022-08-19T02:32:32;19.50;;;17.80;;
1376;SDS011;682;52.502;13.488;2022-08-19T02:34:59;20.90;;;19.00;;
1376;SDS011;682;52.502;13.488;2022-08-19T02:37:27;19.50;;;17.67;;
1376;SDS011;682;52.502;13.488;2022-08-19T02:40:11;20.67;;;18.87;;
1376;SDS011;682;52.502;13.488;2022-08-19T02:42:38;21.27;;;19.47;;
1376;SDS011;682;52.502;13.488;2022-08-19T02:45:06;21.87;;;19.87;;
1376;SDS011;682;52.502;13.488;2022-08-19T02:47:35;20.93;;;19.03;;
1376;SDS011;682;52.502;13.488;2022-08-19T02:50:02;23.90;;;21.67;;
1376;SDS011;682;52.502;13.488;2022-08-19T02:52:31;23.17;;;21.07;;
1376;SDS011;682;52.502;13.488;2022-08-19T02:54:58;24.57;;;21.97;;
1376;SDS011;682;52.502;13.488;2022-08-19T02:57:26;23.70;;;21.60;;
1376;SDS011;682;52.502;13.488;2022-08-19T02:59:53;22.47;;;20.57;;
1376;SDS011;682;52.502;13.488;2022-08-19T03:02:20;23.60;;;21.60;;
1376;SDS011;682;52.502;13.488;2022-08-19T03:04:48;22.13;;;20.13;;
1376;SDS011;682;52.502;13.488;2022-08-19T03:07:16;23.23;;;21.33;;
1376;SDS011;682;52.502;13.488;2022-08-19T03:09:43;23.90;;;21.70;;
1376;SDS011;682;52.502;13.488;2022-08-19T03:12:11;23.53;;;21.30;;
1376;SDS011;682;52.502;13.488;2022-08-19T03:14:38;23.47;;;21.37;;
1376;SDS011;682;52.502;13.488;2022-08-19T03:17:05;21.60;;;19.73;;
1376;SDS011;682;52.502;13.488;2022-08-19T03:19:33;23.47;;;21.30;;
1376;SDS011;682;52.502;13.488;2022-08-19T03:22:01;20.90;;;19.10;;
1376;SDS011;682;52.502;13.488;2022-08-19T03:24:29;21.70;;;19.80;;
1376;SDS011;682;52.502;13.488;2022-08-19T03:26:56;20.00;;;18.40;;
1376;SDS011;682;52.502;13.488;2022-08-19T03:29:23;21.40;;;19.60;;
1376;SDS011;682;52.502;13.488;2022-08-19T03:31:52;21.17;;;19.37;;
1376;SDS011;682;52.502;13.488;2022-08-19T03:34:21;20.50;;;18.70;;
1376;SDS011;682;52.502;13.488;2022-08-19T03:36:51;21.30;;;19.50;;
1376;SDS011;682;52.502;13.488;2022-08-19T03:39:21;22.07;;;20.17;;
1376;SDS011;682;52.502;13.488;2022-08-19T03:41:49;21.93;;;19.83;;
1376;SDS011;682;52.502;13.488;2022-08-19T03:44:19;20.37;;;18.67;;
1376;SDS011;682;52.502;13.488;2022-08-19T03:46:47;19.60;;;17.90;;
1376;SDS011;682;52.502;13.488;2022-08-19T03:49:16;21.20;;;19.40;;
1376;SDS011;682;52.502;13.488;2022-08-19T03:51:44;19.00;;;17.40;;
1376;SDS011;682;52.502;13.488;2022-08-19T03:54:13;21.00;;;19.20;;
1376;SDS011;682;52.502;13.488;2022-08-19T03:56:45;19.97;;;18.37;;
1376;SDS011;682;52.502;13.488;2022-08-19T03:59:15;18.97;;;17.27;;
1376;SDS011;682;52.502;13.488;2022-08-19T04:01:43;20.83;;;19.03;;
1376;SDS011;682;52.502;13.488;2022-08-19T04:04:10;22.20;;;20.30;;
1376;SDS011;682;52.502;13.488;2022-08-19T04:06:38;20.47;;;18.57;;
1376;SDS011;682;52.502;13.488;2022-08-19T04:09:06;20.40;;;18.70;;
1376;SDS011;682;52.502;13.488;2022-08-19T04:11:35;22.03;;;20.10;;
1376;SDS011;682;52.502;13.488;2022-08-19T04:14:08;22.33;;;20.23;;
1376;SDS011;682;52.502;13.488;2022-08-19T04:16:35;22.10;;;20.17;;
1376;SDS011;682;52.502;13.488;2022-08-19T04:19:04;22.07;;;20.27;;
1376;SDS011;682;52.502;13.488;2022-08-19T04:21:32;21.77;;;19.97;;
1376;SDS011;682;52.502;13.488;2022-08-19T04:24:00;22.17;;;20.20;;
1376;SDS011;682;52.502;13.488;2022-08-19T04:26:29;21.60;;;19.80;;
1376;SDS011;682;52.502;13.488;2022-08-19T04:28:58;23.27;;;21.27;;
1376;SDS011;682;52.502;13.488;2022-08-19T04:31:28;22.23;;;20.40;;
1376;SDS011;682;52.502;13.488;2022-08-19T04:33:59;22.73;;;20.73;;
1376;SDS011;682;52.502;13.488;2022-08-19T04:36:28;24.73;;;22.63;;
1376;SDS011;682;52.502;13.488;2022-08-19T04:38:56;23.50;;;21.40;;
1376;SDS011;682;52.502;13.488;2022-08-19T04:41:24;22.70;;;20.70;;
1376;SDS011;682;52.502;13.488;2022-08-19T04:44:09;25.47;;;23.17;;
1376;SDS011;682;52.502;13.488;2022-08-19T04:46:38;23.87;;;21.70;;
1376;SDS011;682;52.502;13.488;2022-08-19T04:49:06;22.30;;;20.30;;
1376;SDS011;682;52.502;13.488;2022-08-19T04:51:33;21.50;;;19.50;;
1376;SDS011;682;52.502;13.488;2022-08-19T04:54:02;21.63;;;19.70;;
1376;SDS011;682;52.502;13.488;2022-08-19T04:56:31;21.00;;;19.10;;
1376;SDS011;682;52.502;13.488;2022-08-19T04:58:58;21.63;;;19.70;;
1376;SDS011;682;52.502;13.488;2022-08-19T05:01:28;24.20;;;22.17;;
1376;SDS011;682;52.502;13.488;2022-08-19T05:03:58;22.47;;;20.47;;
1376;SDS011;682;52.502;13.488;2022-08-19T05:06:26;21.77;;;19.97;;
1376;SDS011;682;52.502;13.488;2022-08-19T05:08:57;21.83;;;19.93;;
1376;SDS011;682;52.502;13.488;2022-08-19T05:11:26;22.53;;;20.70;;
1376;SDS011;682;52.502;13.488;2022-08-19T05:13:55;23.53;;;21.60;;
1376;SDS011;682;52.502;13.488;2022-08-19T05:16:23;21.50;;;19.70;;
1376;SDS011;682;52.502;13.488;2022-08-19T05:18:51;22.77;;;20.80;;
1376;SDS011;682;52.502;13.488;2022-08-19T05:21:37;21.80;;;19.90;;
1376;SDS011;682;52.502;13.488;2022-08-19T05:24:23;25.70;;;23.40;;
1376;SDS011;682;52.502;13.488;2022-08-19T05:26:51;21.47;;;19.67;;
1376;SDS011;682;52.502;13.488;2022-08-19T05:29:21;21.80;;;20.00;;
1376;SDS011;682;52.502;13.488;2022-08-19T05:31:50;21.70;;;19.80;;
1376;SDS011;682;52.502;13.488;2022-08-19T05:34:18;20.70;;;18.57;;
1376;SDS011;682;52.502;13.488;2022-08-19T05:36:49;20.00;;;18.40;;
1376;SDS011;682;52.502;13.488;2022-08-19T05:39:22;18.33;;;16.53;;
1376;SDS011;682;52.502;13.488;2022-08-19T05:41:52;18.00;;;16.40;;
1376;SDS011;682;52.502;13.488;2022-08-19T05:44:22;18.00;;;16.47;;
1376;SDS011;682;52.502;13.488;2022-08-19T05:46:50;16.10;;;14.70;;
1376;SDS011;682;52.502;13.488;2022-08-19T05:49:19;17.80;;;16.20;;
1376;SDS011;682;52.502;13.488;2022-08-19T05:51:48;17.00;;;15.50;;
1376;SDS011;682;52.502;13.488;2022-08-19T05:54:15;16.73;;;15.33;;
1376;SDS011;682;52.502;13.488;2022-08-19T05:56:42;17.40;;;15.73;;
1376;SDS011;682;52.502;13.488;2022-08-19T05:59:12;18.07;;;16.07;;
1376;SDS011;682;52.502;13.488;2022-08-19T06:01:40;17.23;;;15.67;;
1376;SDS011;682;52.502;13.488;2022-08-19T06:04:09;17.67;;;16.03;;
1376;SDS011;682;52.502;13.488;2022-08-19T06:06:36;16.50;;;14.90;;
1376;SDS011;682;52.502;13.488;2022-08-19T06:09:05;17.90;;;16.00;;
1376;SDS011;682;52.502;13.488;2022-08-19T06:11:35;17.60;;;16.10;;
1376;SDS011;682;52.502;13.488;2022-08-19T06:14:07;18.53;;;16.83;;
1376;SDS011;682;52.502;13.488;2022-08-19T06:16:39;19.63;;;17.93;;
1376;SDS011;682;52.502;13.488;2022-08-19T06:19:07;19.50;;;17.80;;
1376;SDS011;682;52.502;13.488;2022-08-19T06:21:38;19.83;;;18.17;;
1376;SDS011;682;52.502;13.488;2022-08-19T06:24:09;17.67;;;16.17;;
1376;SDS011;682;52.502;13.488;2022-08-19T06:26:39;18.40;;;16.70;;
1376;SDS011;682;52.502;13.488;2022-08-19T06:29:08;19.00;;;17.13;;
1376;SDS011;682;52.502;13.488;2022-08-19T06:31:36;20.23;;;18.33;;
1376;SDS011;682;52.502;13.488;2022-08-19T06:34:06;20.77;;;19.00;;
1376;SDS011;682;52.502;13.488;2022-08-19T06:36:34;18.97;;;17.40;;
1376;SDS011;682;52.502;13.488;2022-08-19T06:39:03;19.60;;;17.93;;
1376;SDS011;682;52.502;13.488;2022-08-19T06:41:34;20.80;;;18.60;;
1376;SDS011;682;52.502;13.488;2022-08-19T06:44:03;21.87;;;19.90;;
1376;SDS011;682;52.502;13.488;2022-08-19T06:46:30;21.23;;;19.10;;
1376;SDS011;682;52.502;13.488;2022-08-19T06:48:57;20.63;;;18.63;;
1376;SDS011;682;52.502;13.488;2022-08-19T06:51:25;20.70;;;18.80;;
1376;SDS011;682;52.502;13.488;2022-08-19T06:53:57;20.87;;;18.97;;
1376;SDS011;682;52.502;13.488;2022-08-19T06:56:25;20.27;;;18.47;;
1376;SDS011;682;52.502;13.488;2022-08-19T06:58:58;20.77;;;19.03;;
1376;SDS011;682;52.502;13.488;2022-08-19T07:01:26;19.07;;;17.40;;
1376;SDS011;682;52.502;13.488;2022-08-19T07:03:53;21.00;;;19.10;;
1376;SDS011;682;52.502;13.488;2022-08-19T07:06:20;21.40;;;19.30;;
1376;SDS011;682;52.502;13.488;2022-08-19T07:08:47;21.00;;;19.27;;
1376;SDS011;682;52.502;13.488;2022-08-19T07:11:16;21.93;;;19.70;;
1376;SDS011;682;52.502;13.488;2022-08-19T07:13:44;22.03;;;19.73;;
1376;SDS011;682;52.502;13.488;2022-08-19T07:16:15;21.60;;;19.43;;
1376;SDS011;682;52.502;13.488;2022-08-19T07:18:44;20.87;;;19.07;;
1376;SDS011;682;52.502;13.488;2022-08-19T07:21:13;21.90;;;19.80;;
1376;SDS011;682;52.502;13.488;2022-08-19T07:23:42;22.77;;;20.67;;
1376;SDS011;682;52.502;13.488;2022-08-19T07:26:11;24.50;;;22.07;;
1376;SDS011;682;52.502;13.488;2022-08-19T07:28:39;21.37;;;19.47;;
1376;SDS011;682;52.502;13.488;2022-08-19T07:31:09;23.50;;;21.27;;
1376;SDS011;682;52.502;13.488;2022-08-19T07:33:39;23.73;;;21.60;;
1376;SDS011;682;52.502;13.488;2022-08-19T07:36:09;23.87;;;21.30;;
1376;SDS011;682;52.502;13.488;2022-08-19T07:38:38;21.20;;;19.03;;
1376;SDS011;682;52.502;13.488;2022-08-19T07:41:06;22.57;;;20.57;;
1376;SDS011;682;52.502;13.488;2022-08-19T07:43:35;22.77;;;20.67;;
1376;SDS011;682;52.502;13.488;2022-08-19T07:46:03;23.73;;;21.20;;
1376;SDS011;682;52.502;13.488;2022-08-19T07:48:30;25.83;;;23.27;;
1376;SDS011;682;52.502;13.488;2022-08-19T07:51:03;21.57;;;19.87;;
1376;SDS011;682;52.502;13.488;2022-08-19T07:53:32;22.23;;;20.23;;
1376;SDS011;682;52.502;13.488;2022-08-19T07:56:00;22.63;;;20.53;;
1376;SDS011;682;52.502;13.488;2022-08-19T07:58:29;22.40;;;20.27;;
1376;SDS011;682;52.502;13.488;2022-08-19T08:00:59;23.93;;;21.67;;
1376;SDS011;682;52.502;13.488;2022-08-19T08:03:27;21.60;;;19.63;;
1376;SDS011;682;52.502;13.488;2022-08-19T08:06:10;24.60;;;22.13;;
1376;SDS011;682;52.502;13.488;2022-08-19T08:08:55;24.17;;;21.70;;
1376;SDS011;682;52.502;13.488;2022-08-19T08:11:37;24.00;;;21.47;;
1376;SDS011;682;52.502;13.488;2022-08-19T08:14:06;23.77;;;21.57;;
1376;SDS011;682;52.502;13.488;2022-08-19T08:16:33;24.47;;;22.40;;
1376;SDS011;682;52.502;13.488;2022-08-19T08:19:02;25.73;;;23.17;;
1376;SDS011;682;52.502;13.488;2022-08-19T08:21:31;23.50;;;21.43;;
1376;SDS011;682;52.502;13.488;2022-08-19T08:23:59;21.20;;;19.50;;
1376;SDS011;682;52.502;13.488;2022-08-19T08:26:26;24.93;;;22.73;;
1376;SDS011;682;52.502;13.488;2022-08-19T08:28:53;22.30;;;20.30;;
1376;SDS011;682;52.502;13.488;2022-08-19T08:31:21;25.10;;;22.53;;
1376;SDS011;682;52.502;13.488;2022-08-19T08:33:48;24.43;;;22.00;;
1376;SDS011;682;52.502;13.488;2022-08-19T08:36:16;22.27;;;20.27;;
1376;SDS011;682;52.502;13.488;2022-08-19T08:38:44;21.07;;;19.13;;
1376;SDS011;682;52.502;13.488;2022-08-19T08:41:13;22.80;;;20.70;;
1376;SDS011;682;52.502;13.488;2022-08-19T08:43:47;22.17;;;20.10;;
1376;SDS011;682;52.502;13.488;2022-08-19T08:46:20;21.70;;;19.80;;
1376;SDS011;682;52.502;13.488;2022-08-19T08:48:53;22.40;;;20.40;;
1376;SDS011;682;52.502;13.488;2022-08-19T08:51:25;22.40;;;20.60;;
1376;SDS011;682;52.502;13.488;2022-08-19T08:53:59;21.93;;;19.93;;
1376;SDS011;682;52.502;13.488;2022-08-19T08:56:28;21.30;;;19.50;;
1376;SDS011;682;52.502;13.488;2022-08-19T08:58:57;22.23;;;20.13;;
1376;SDS011;682;52.502;13.488;2022-08-19T09:01:25;21.40;;;19.60;;
1376;SDS011;682;52.502;13.488;2022-08-19T09:03:52;22.00;;;20.20;;
1376;SDS011;682;52.502;13.488;2022-08-19T09:06:23;22.70;;;20.80;;
1376;SDS011;682;52.502;13.488;2022-08-19T09:08:57;20.77;;;19.17;;
1376;SDS011;682;52.502;13.488;2022-08-19T09:11:43;22.30;;;20.50;;
1376;SDS011;682;52.502;13.488;2022-08-19T09:14:21;24.20;;;22.20;;
1376;SDS011;682;52.502;13.488;2022-08-19T09:17:00;23.50;;;21.50;;
1376;SDS011;682;52.502;13.488;2022-08-19T09:19:34;23.40;;;21.17;;
1376;SDS011;682;52.502;13.488;2022-08-19T09:22:02;25.50;;;23.27;;
1376;SDS011;682;52.502;13.488;2022-08-19T09:24:31;25.90;;;23.37;;
1376;SDS011;682;52.502;13.488;2022-08-19T09:26:58;24.77;;;22.67;;
1376;SDS011;682;52.502;13.488;2022-08-19T09:29:26;24.90;;;22.90;;
1376;SDS011;682;52.502;13.488;2022-08-19T09:31:54;23.87;;;21.67;;
1376;SDS011;682;52.502;13.488;2022-08-19T09:34:23;24.00;;;21.90;;
1376;SDS011;682;52.502;13.488;2022-08-19T09:36:50;25.43;;;23.43;;
1376;SDS011;682;52.502;13.488;2022-08-19T09:39:20;24.40;;;22.40;;
1376;SDS011;682;52.502;13.488;2022-08-19T09:41:50;23.37;;;21.47;;
1376;SDS011;682;52.502;13.488;2022-08-19T09:44:18;27.53;;;24.43;;
1376;SDS011;682;52.502;13.488;2022-08-19T09:46:45;22.73;;;20.83;;
1376;SDS011;682;52.502;13.488;2022-08-19T09:49:13;23.00;;;21.10;;
1376;SDS011;682;52.502;13.488;2022-08-19T09:51:40;22.23;;;20.33;;
1376;SDS011;682;52.502;13.488;2022-08-19T09:54:17;23.63;;;21.63;;
1376;SDS011;682;52.502;13.488;2022-08-19T09:56:44;23.67;;;21.77;;
1376;SDS011;682;52.502;13.488;2022-08-19T09:59:12;25.03;;;22.93;;
1376;SDS011;682;52.502;13.488;2022-08-19T10:01:39;22.50;;;20.60;;
1376;SDS011;682;52.502;13.488;2022-08-19T10:04:06;23.00;;;21.10;;
1376;SDS011;682;52.502;13.488;2022-08-19T10:06:36;24.37;;;22.27;;
1376;SDS011;682;52.502;13.488;2022-08-19T10:09:08;25.10;;;22.90;;
1376;SDS011;682;52.502;13.488;2022-08-19T10:11:36;26.47;;;24.27;;
1376;SDS011;682;52.502;13.488;2022-08-19T10:14:06;22.93;;;20.63;;
1376;SDS011;682;52.502;13.488;2022-08-19T10:16:35;22.10;;;20.30;;
1376;SDS011;682;52.502;13.488;2022-08-19T10:19:04;22.30;;;20.60;;
1376;SDS011;682;52.502;13.488;2022-08-19T10:21:32;21.60;;;19.70;;
1376;SDS011;682;52.502;13.488;2022-08-19T10:24:05;20.97;;;19.20;;
1376;SDS011;682;52.502;13.488;2022-08-19T10:26:35;21.20;;;19.20;;
1376;SDS011;682;52.502;13.488;2022-08-19T10:29:06;27.30;;;24.77;;
1376;SDS011;682;52.502;13.488;2022-08-19T10:31:36;21.97;;;20.13;;
1376;SDS011;682;52.502;13.488;2022-08-19T10:34:03;23.63;;;21.30;;
1376;SDS011;682;52.502;13.488;2022-08-19T10:36:30;21.73;;;19.57;;
1376;SDS011;682;52.502;13.488;2022-08-19T10:39:00;19.50;;;17.90;;
1376;SDS011;682;52.502;13.488;2022-08-19T10:41:32;20.10;;;18.30;;
1376;SDS011;682;52.502;13.488;2022-08-19T10:44:02;18.70;;;17.10;;
1376;SDS011;682;52.502;13.488;2022-08-19T10:46:30;20.83;;;19.03;;
1376;SDS011;682;52.502;13.488;2022-08-19T10:49:08;20.17;;;18.47;;
1376;SDS011;682;52.502;13.488;2022-08-19T10:51:37;20.10;;;18.43;;
1376;SDS011;682;52.502;13.488;2022-08-19T10:54:23;19.83;;;18.10;;
1376;SDS011;682;52.502;13.488;2022-08-19T10:57:12;18.83;;;17.33;;
1376;SDS011;682;52.502;13.488;2022-08-19T10:59:38;20.77;;;19.07;;
1376;SDS011;682;52.502;13.488;2022-08-19T11:02:07;19.57;;;17.97;;
1376;SDS011;682;52.502;13.488;2022-08-19T11:04:40;21.30;;;19.40;;
1376;SDS011;682;52.502;13.488;2022-08-19T11:07:07;19.80;;;18.10;;
1376;SDS011;682;52.502;13.488;2022-08-19T11:09:36;21.20;;;19.17;;
1376;SDS011;682;52.502;13.488;2022-08-19T11:12:05;20.13;;;18.40;;
1376;SDS011;682;52.502;13.488;2022-08-19T11:14:33;21.17;;;19.20;;
1376;SDS011;682;52.502;13.488;2022-08-19T11:17:00;20.23;;;18.20;;
1376;SDS011;682;52.502;13.488;2022-08-19T11:19:28;19.90;;;17.90;;
1376;SDS011;682;52.502;13.488;2022-08-19T11:21:58;20.50;;;18.80;;
1376;SDS011;682;52.502;13.488;2022-08-19T11:24:27;20.07;;;18.37;;
1376;SDS011;682;52.502;13.488;2022-08-19T11:26:58;20.93;;;19.13;;
1376;SDS011;682;52.502;13.488;2022-08-19T11:29:32;21.57;;;19.63;;
1376;SDS011;682;52.502;13.488;2022-08-19T11:32:05;20.70;;;18.80;;
1376;SDS011;682;52.502;13.488;2022-08-19T11:34:34;21.67;;;19.50;;
1376;SDS011;682;52.502;13.488;2022-08-19T11:37:07;22.37;;;20.10;;
1376;SDS011;682;52.502;13.488;2022-08-19T11:39:34;20.93;;;18.70;;
1376;SDS011;682;52.502;13.488;2022-08-19T11:42:03;19.43;;;17.73;;
1376;SDS011;682;52.502;13.488;2022-08-19T11:44:52;20.60;;;18.90;;
1376;SDS011;682;52.502;13.488;2022-08-19T11:47:20;19.27;;;17.67;;
1376;SDS011;682;52.502;13.488;2022-08-19T11:49:47;20.07;;;18.37;;
1376;SDS011;682;52.502;13.488;2022-08-19T11:52:15;18.43;;;16.70;;
1376;SDS011;682;52.502;13.488;2022-08-19T11:54:44;19.50;;;17.70;;
1376;SDS011;682;52.502;13.488;2022-08-19T11:57:11;18.63;;;16.80;;
1376;SDS011;682;52.502;13.488;2022-08-19T11:59:42;17.27;;;15.77;;
1376;SDS011;682;52.502;13.488;2022-08-19T12:02:13;19.77;;;18.07;;
1376;SDS011;682;52.502;13.488;2022-08-19T12:04:40;17.87;;;16.20;;
1376;SDS011;682;52.502;13.488;2022-08-19T12:07:09;17.90;;;16.10;;
1376;SDS011;682;52.502;13.488;2022-08-19T12:09:38;17.10;;;15.70;;
1376;SDS011;682;52.502;13.488;2022-08-19T12:12:05;19.20;;;17.50;;
1376;SDS011;682;52.502;13.488;2022-08-19T12:14:32;16.10;;;14.57;;
1376;SDS011;682;52.502;13.488;2022-08-19T12:17:01;16.60;;;15.20;;
1376;SDS011;682;52.502;13.488;2022-08-19T12:19:29;17.00;;;15.60;;
1376;SDS011;682;52.502;13.488;2022-08-19T12:22:02;16.53;;;15.00;;
1376;SDS011;682;52.502;13.488;2022-08-19T12:24:30;17.17;;;15.57;;
1376;SDS011;682;52.502;13.488;2022-08-19T12:27:00;15.57;;;14.27;;
1376;SDS011;682;52.502;13.488;2022-08-19T12:29:29;15.30;;;13.90;;
1376;SDS011;682;52.502;13.488;2022-08-19T12:31:57;15.67;;;14.37;;
1376;SDS011;682;52.502;13.488;2022-08-19T12:34:27;15.30;;;14.00;;
1376;SDS011;682;52.502;13.488;2022-08-19T12:36:55;15.40;;;13.90;;
1376;SDS011;682;52.502;13.488;2022-08-19T12:39:23;15.30;;;13.90;;
1376;SDS011;682;52.502;13.488;2022-08-19T12:41:52;14.80;;;13.50;;
1376;SDS011;682;52.502;13.488;2022-08-19T12:44:21;14.87;;;13.47;;
1376;SDS011;682;52.502;13.488;2022-08-19T12:46:48;22.83;;;20.87;;
1376;SDS011;682;52.502;13.488;2022-08-19T12:49:16;14.93;;;13.50;;
1376;SDS011;682;52.502;13.488;2022-08-19T12:51:43;14.83;;;13.50;;
1376;SDS011;682;52.502;13.488;2022-08-19T12:54:11;14.90;;;13.60;;
1376;SDS011;682;52.502;13.488;2022-08-19T12:56:39;13.03;;;11.93;;
1376;SDS011;682;52.502;13.488;2022-08-19T12:59:08;13.17;;;11.97;;
1376;SDS011;682;52.502;13.488;2022-08-19T13:01:37;13.33;;;12.13;;
1376;SDS011;682;52.502;13.488;2022-08-19T13:04:05;14.10;;;12.77;;
1376;SDS011;682;52.502;13.488;2022-08-19T13:06:32;12.93;;;11.83;;
1376;SDS011;682;52.502;13.488;2022-08-19T13:08:59;12.60;;;11.40;;
1376;SDS011;682;52.502;13.488;2022-08-19T13:11:26;13.20;;;12.00;;
1376;SDS011;682;52.502;13.488;2022-08-19T13:13:57;13.50;;;12.40;;
1376;SDS011;682;52.502;13.488;2022-08-19T13:16:25;13.90;;;12.60;;
1376;SDS011;682;52.502;13.488;2022-08-19T13:18:54;13.70;;;12.50;;
1376;SDS011;682;52.502;13.488;2022-08-19T13:21:22;13.93;;;12.73;;
1376;SDS011;682;52.502;13.488;2022-08-19T13:23:52;15.37;;;13.97;;
1376;SDS011;682;52.502;13.488;2022-08-19T13:26:20;15.17;;;13.87;;
1376;SDS011;682;52.502;13.488;2022-08-19T13:28:47;16.23;;;14.73;;
1376;SDS011;682;52.502;13.488;2022-08-19T13:31:32;15.30;;;13.90;;
1376;SDS011;682;52.502;13.488;2022-08-19T13:34:30;16.90;;;15.40;;
1376;SDS011;682;52.502;13.488;2022-08-19T13:36:59;17.33;;;15.83;;
1376;SDS011;682;52.502;13.488;2022-08-19T13:39:28;15.87;;;14.57;;
1376;SDS011;682;52.502;13.488;2022-08-19T13:41:55;15.83;;;14.43;;
1376;SDS011;682;52.502;13.488;2022-08-19T13:44:23;17.20;;;15.83;;
1376;SDS011;682;52.502;13.488;2022-08-19T13:46:50;15.57;;;14.27;;
1376;SDS011;682;52.502;13.488;2022-08-19T13:49:17;15.37;;;14.10;;
1376;SDS011;682;52.502;13.488;2022-08-19T13:51:45;16.00;;;14.60;;
1376;SDS011;682;52.502;13.488;2022-08-19T13:54:12;15.03;;;13.63;;
1376;SDS011;682;52.502;13.488;2022-08-19T13:56:41;16.50;;;15.10;;
1376;SDS011;682;52.502;13.488;2022-08-19T13:59:09;17.80;;;16.20;;
1376;SDS011;682;52.502;13.488;2022-08-19T14:01:36;16.67;;;15.23;;
1376;SDS011;682;52.502;13.488;2022-08-19T14:04:03;16.73;;;15.30;;
1376;SDS011;682;52.502;13.488;2022-08-19T14:06:31;15.90;;;14.60;;
1376;SDS011;682;52.502;13.488;2022-08-19T14:09:05;16.50;;;15.00;;
1376;SDS011;682;52.502;13.488;2022-08-19T14:11:34;16.70;;;15.30;;
1376;SDS011;682;52.502;13.488;2022-08-19T14:14:02;17.87;;;16.37;;
1376;SDS011;682;52.502;13.488;2022-08-19T14:16:29;15.27;;;14.07;;
1376;SDS011;682;52.502;13.488;2022-08-19T14:18:56;15.77;;;14.40;;
1376;SDS011;682;52.502;13.488;2022-08-19T14:21:23;17.23;;;15.73;;
1376;SDS011;682;52.502;13.488;2022-08-19T14:23:53;17.20;;;15.70;;
1376;SDS011;682;52.502;13.488;2022-08-19T14:26:22;16.57;;;15.07;;
1376;SDS011;682;52.502;13.488;2022-08-19T14:28:49;16.77;;;15.37;;
1376;SDS011;682;52.502;13.488;2022-08-19T14:31:17;16.33;;;14.93;;
1376;SDS011;682;52.502;13.488;2022-08-19T14:33:45;17.20;;;15.70;;
1376;SDS011;682;52.502;13.488;2022-08-19T14:36:13;16.57;;;15.07;;
1376;SDS011;682;52.502;13.488;2022-08-19T14:38:43;16.80;;;15.40;;
1376;SDS011;682;52.502;13.488;2022-08-19T14:41:25;17.23;;;15.73;;
1376;SDS011;682;52.502;13.488;2022-08-19T14:43:52;16.13;;;14.83;;
1376;SDS011;682;52.502;13.488;2022-08-19T14:46:20;16.77;;;15.47;;
1376;SDS011;682;52.502;13.488;2022-08-19T14:48:51;16.70;;;15.30;;
1376;SDS011;682;52.502;13.488;2022-08-19T14:51:20;16.23;;;14.80;;
1376;SDS011;682;52.502;13.488;2022-08-19T14:53:52;15.73;;;14.43;;
1376;SDS011;682;52.502;13.488;2022-08-19T14:56:21;16.83;;;15.33;;
1376;SDS011;682;52.502;13.488;2022-08-19T14:58:53;16.03;;;14.53;;
1376;SDS011;682;52.502;13.488;2022-08-19T15:01:24;16.53;;;15.03;;